createdAt,value
2018-07-17T00:00:21.794Z,998.92
2018-07-17T00:01:21.792Z,998.92
2018-07-17T00:02:21.813Z,998.95
2018-07-17T00:03:21.838Z,998.96
2018-07-17T00:04:21.881Z,998.96
2018-07-17T00:05:21.876Z,998.94
2018-07-17T00:06:21.912Z,998.89
2018-07-17T00:07:21.923Z,998.91
2018-07-17T00:08:21.944Z,998.88
2018-07-17T00:09:21.956Z,998.90
2018-07-17T00:10:21.983Z,998.89
2018-07-17T00:11:21.998Z,998.87
2018-07-17T00:12:22.040Z,998.91
2018-07-17T00:13:22.057Z,998.89
2018-07-17T00:14:22.065Z,998.92
2018-07-17T00:15:22.099Z,998.93
2018-07-17T00:16:22.103Z,998.92
2018-07-17T00:17:22.122Z,998.92
2018-07-17T00:18:22.145Z,998.95
2018-07-17T00:19:22.169Z,998.94
2018-07-17T00:20:22.185Z,998.94
2018-07-17T00:21:22.211Z,998.97
2018-07-17T00:22:22.239Z,998.93
2018-07-17T00:23:22.251Z,998.95
2018-07-17T00:24:22.293Z,998.93
2018-07-17T00:25:22.293Z,998.94
2018-07-17T00:26:22.313Z,998.97
2018-07-17T00:27:22.333Z,998.96
2018-07-17T00:28:22.363Z,998.99
2018-07-17T00:29:22.374Z,998.96
2018-07-17T00:30:22.393Z,998.97
2018-07-17T00:31:22.419Z,998.99
2018-07-17T00:32:22.445Z,998.98
2018-07-17T00:33:22.454Z,998.99
2018-07-17T00:34:22.479Z,998.99
2018-07-17T00:35:22.505Z,998.97
2018-07-17T00:36:22.515Z,998.97
2018-07-17T00:37:22.533Z,998.97
2018-07-17T00:38:22.557Z,998.98
2018-07-17T00:39:22.573Z,998.94
2018-07-17T00:40:22.610Z,998.93
2018-07-17T00:41:22.619Z,998.95
2018-07-17T00:42:22.631Z,998.93
2018-07-17T00:43:22.657Z,998.96
2018-07-17T00:44:22.680Z,998.93
2018-07-17T00:45:22.694Z,998.95
2018-07-17T00:46:22.717Z,998.99
2018-07-17T00:47:22.756Z,998.98
2018-07-17T00:48:22.788Z,998.98
2018-07-17T00:49:22.798Z,998.97
2018-07-17T00:50:22.810Z,998.99
2018-07-17T00:51:22.824Z,998.97
2018-07-17T00:52:22.851Z,998.93
2018-07-17T00:53:22.864Z,998.98
2018-07-17T00:54:22.882Z,998.92
2018-07-17T00:55:22.924Z,998.93
2018-07-17T00:56:22.921Z,998.95
2018-07-17T00:57:22.942Z,998.93
2018-07-17T00:58:22.969Z,998.94
2018-07-17T00:59:22.979Z,998.90
2018-07-17T01:00:23.003Z,998.88
2018-07-17T01:01:23.027Z,998.88
2018-07-17T01:02:23.051Z,998.89
2018-07-17T01:03:23.066Z,998.89
2018-07-17T01:04:23.112Z,998.88
2018-07-17T01:05:23.103Z,998.90
2018-07-17T01:06:23.130Z,998.83
2018-07-17T01:07:23.150Z,998.86
2018-07-17T01:08:23.167Z,998.82
2018-07-17T01:09:23.184Z,998.81
2018-07-17T01:10:23.204Z,998.78
2018-07-17T01:11:23.244Z,998.75
2018-07-17T01:12:23.245Z,998.74
2018-07-17T01:13:23.266Z,998.75
2018-07-17T01:14:23.302Z,998.69
2018-07-17T01:15:23.312Z,998.72
2018-07-17T01:16:23.324Z,998.70
2018-07-17T01:17:23.355Z,998.72
2018-07-17T01:18:23.367Z,998.71
2018-07-17T01:19:23.394Z,998.73
2018-07-17T01:20:23.420Z,998.73
2018-07-17T01:21:23.456Z,998.78
2018-07-17T01:22:23.445Z,998.75
2018-07-17T01:23:23.484Z,998.78
2018-07-17T01:24:23.506Z,998.76
2018-07-17T01:25:23.513Z,998.76
2018-07-17T01:26:23.529Z,998.77
2018-07-17T01:27:23.552Z,998.80
2018-07-17T01:28:23.573Z,998.81
2018-07-17T01:29:23.601Z,998.76
2018-07-17T01:30:23.617Z,998.75
2018-07-17T01:31:23.636Z,998.77
2018-07-17T01:32:23.664Z,998.80
2018-07-17T01:33:23.673Z,998.75
2018-07-17T01:34:23.689Z,998.79
2018-07-17T01:35:23.719Z,998.79
2018-07-17T01:36:23.738Z,998.78
2018-07-17T01:37:23.751Z,998.79
2018-07-17T01:38:23.823Z,998.77
2018-07-17T01:39:23.821Z,998.77
2018-07-17T01:40:23.810Z,998.79
2018-07-17T01:41:23.829Z,998.76
2018-07-17T01:42:23.857Z,998.81
2018-07-17T01:43:23.877Z,998.78
2018-07-17T01:44:23.918Z,998.77
2018-07-17T01:45:23.918Z,998.75
2018-07-17T01:46:23.941Z,998.76
2018-07-17T01:47:24.001Z,998.70
2018-07-17T01:48:23.971Z,998.76
2018-07-17T01:49:23.997Z,998.76
2018-07-17T01:50:24.016Z,998.77
2018-07-17T01:51:24.035Z,998.75
2018-07-17T01:52:24.052Z,998.75
2018-07-17T01:53:24.079Z,998.75
2018-07-17T01:54:24.089Z,998.76
2018-07-17T01:55:24.121Z,998.72
2018-07-17T01:56:24.131Z,998.73
2018-07-17T01:57:24.158Z,998.69
2018-07-17T01:58:24.185Z,998.72
2018-07-17T01:59:24.199Z,998.64
2018-07-17T02:00:24.224Z,998.66
2018-07-17T02:01:24.232Z,998.68
2018-07-17T02:02:24.259Z,998.66
2018-07-17T02:03:24.281Z,998.66
2018-07-17T02:04:24.297Z,998.66
2018-07-17T02:05:24.312Z,998.65
2018-07-17T02:06:24.335Z,998.66
2018-07-17T02:07:24.361Z,998.65
2018-07-17T02:08:24.376Z,998.63
2018-07-17T02:09:24.391Z,998.64
2018-07-17T02:10:24.410Z,998.63
2018-07-17T02:11:24.439Z,998.67
2018-07-17T02:12:24.456Z,998.63
2018-07-17T02:13:24.470Z,998.64
2018-07-17T02:14:24.493Z,998.65
2018-07-17T02:15:24.515Z,998.67
2018-07-17T02:16:24.548Z,998.67
2018-07-17T02:17:24.552Z,998.64
2018-07-17T02:18:24.571Z,998.68
2018-07-17T02:19:24.613Z,998.69
2018-07-17T02:20:24.622Z,998.70
2018-07-17T02:21:24.641Z,998.71
2018-07-17T02:22:24.663Z,998.73
2018-07-17T02:23:24.677Z,998.70
2018-07-17T02:24:24.693Z,998.71
2018-07-17T02:25:24.715Z,998.75
2018-07-17T02:26:24.736Z,998.71
2018-07-17T02:27:24.761Z,998.73
2018-07-17T02:28:24.772Z,998.73
2018-07-17T02:29:24.798Z,998.74
2018-07-17T02:30:24.829Z,998.72
2018-07-17T02:31:24.842Z,998.74
2018-07-17T02:32:24.857Z,998.71
2018-07-17T02:33:24.879Z,998.70
2018-07-17T02:34:24.909Z,998.69
2018-07-17T02:35:24.923Z,998.70
2018-07-17T02:36:24.948Z,998.71
2018-07-17T02:37:24.972Z,998.71
2018-07-17T02:38:24.997Z,998.72
2018-07-17T02:39:25.015Z,998.74
2018-07-17T02:40:25.034Z,998.76
2018-07-17T02:41:25.041Z,998.75
2018-07-17T02:42:25.100Z,998.76
2018-07-17T02:43:25.080Z,998.78
2018-07-17T02:44:25.092Z,998.78
2018-07-17T02:45:25.127Z,998.76
2018-07-17T02:46:25.147Z,998.76
2018-07-17T02:47:25.164Z,998.76
2018-07-17T02:48:25.175Z,998.78
2018-07-17T02:49:25.198Z,998.76
2018-07-17T02:50:25.216Z,998.78
2018-07-17T02:51:25.238Z,998.80
2018-07-17T02:52:25.254Z,998.82
2018-07-17T02:53:25.279Z,998.83
2018-07-17T02:54:25.293Z,998.81
2018-07-17T02:55:25.328Z,998.80
2018-07-17T02:56:25.333Z,998.81
2018-07-17T02:57:25.358Z,998.80
2018-07-17T02:58:25.384Z,998.80
2018-07-17T02:59:25.405Z,998.80
2018-07-17T03:00:25.417Z,998.79
2018-07-17T03:01:25.436Z,998.76
2018-07-17T03:02:25.462Z,998.76
2018-07-17T03:03:25.478Z,998.78
2018-07-17T03:04:25.493Z,998.81
2018-07-17T03:05:25.518Z,998.80
2018-07-17T03:06:25.535Z,998.81
2018-07-17T03:07:25.567Z,998.82
2018-07-17T03:08:25.582Z,998.88
2018-07-17T03:09:25.607Z,998.89
2018-07-17T03:10:25.617Z,998.95
2018-07-17T03:11:25.630Z,998.93
2018-07-17T03:12:25.662Z,998.95
2018-07-17T03:13:25.677Z,998.96
2018-07-17T03:14:25.693Z,998.98
2018-07-17T03:15:25.736Z,998.98
2018-07-17T03:16:25.761Z,998.99
2018-07-17T03:17:25.765Z,998.95
2018-07-17T03:18:25.773Z,998.96
2018-07-17T03:19:25.797Z,998.97
2018-07-17T03:20:25.814Z,998.96
2018-07-17T03:21:25.827Z,998.99
2018-07-17T03:22:25.850Z,999.05
2018-07-17T03:23:25.875Z,999.06
2018-07-17T03:24:25.940Z,999.09
2018-07-17T03:25:25.907Z,999.06
2018-07-17T03:26:25.944Z,999.08
2018-07-17T03:27:25.951Z,999.08
2018-07-17T03:28:25.972Z,999.11
2018-07-17T03:29:25.993Z,999.12
2018-07-17T03:30:26.014Z,999.12
2018-07-17T03:31:26.033Z,999.10
2018-07-17T03:32:26.048Z,999.13
2018-07-17T03:33:26.085Z,999.11
2018-07-17T03:34:26.097Z,999.12
2018-07-17T03:35:26.119Z,999.10
2018-07-17T03:36:26.162Z,999.11
2018-07-17T03:37:26.150Z,999.11
2018-07-17T03:38:26.165Z,999.07
2018-07-17T03:39:26.211Z,999.07
2018-07-17T03:40:26.204Z,999.07
2018-07-17T03:41:26.228Z,999.06
2018-07-17T03:42:26.248Z,999.08
2018-07-17T03:43:26.266Z,999.07
2018-07-17T03:44:26.297Z,999.06
2018-07-17T03:45:26.311Z,999.11
2018-07-17T03:46:26.328Z,999.06
2018-07-17T03:47:26.346Z,999.07
2018-07-17T03:48:26.370Z,999.05
2018-07-17T03:49:26.394Z,999.04
2018-07-17T03:50:26.408Z,999.05
2018-07-17T03:51:26.439Z,999.03
2018-07-17T03:52:26.453Z,999.07
2018-07-17T03:53:26.493Z,999.11
2018-07-17T03:54:26.486Z,999.13
2018-07-17T03:55:26.507Z,999.15
2018-07-17T03:56:26.525Z,999.17
2018-07-17T03:57:26.549Z,999.21
2018-07-17T03:58:26.568Z,999.18
2018-07-17T03:59:26.601Z,999.22
2018-07-17T04:00:26.612Z,999.18
2018-07-17T04:01:26.622Z,999.21
2018-07-17T04:02:26.648Z,999.20
2018-07-17T04:03:26.670Z,999.23
2018-07-17T04:04:26.749Z,999.22
2018-07-17T04:05:26.717Z,999.25
2018-07-17T04:06:26.733Z,999.28
2018-07-17T04:07:26.751Z,999.28
2018-07-17T04:08:26.767Z,999.30
2018-07-17T04:09:26.798Z,999.29
2018-07-17T04:10:26.807Z,999.29
2018-07-17T04:11:26.829Z,999.30
2018-07-17T04:12:26.870Z,999.31
2018-07-17T04:13:26.927Z,999.28
2018-07-17T04:14:26.898Z,999.29
2018-07-17T04:15:26.910Z,999.33
2018-07-17T04:16:26.924Z,999.31
2018-07-17T04:17:26.941Z,999.28
2018-07-17T04:18:26.974Z,999.30
2018-07-17T04:19:26.990Z,999.31
2018-07-17T04:20:27.005Z,999.33
2018-07-17T04:21:27.039Z,999.33
2018-07-17T04:22:27.054Z,999.31
2018-07-17T04:23:27.066Z,999.34
2018-07-17T04:24:27.099Z,999.34
2018-07-17T04:25:27.116Z,999.34
2018-07-17T04:26:27.141Z,999.34
2018-07-17T04:27:27.155Z,999.34
2018-07-17T04:28:27.176Z,999.34
2018-07-17T04:29:27.187Z,999.39
2018-07-17T04:30:27.214Z,999.39
2018-07-17T04:31:27.243Z,999.41
2018-07-17T04:32:27.245Z,999.40
2018-07-17T04:33:27.280Z,999.40
2018-07-17T04:34:27.295Z,999.42
2018-07-17T04:35:27.316Z,999.43
2018-07-17T04:36:27.333Z,999.45
2018-07-17T04:37:27.350Z,999.49
2018-07-17T04:38:27.456Z,999.47
2018-07-17T04:39:27.391Z,999.51
2018-07-17T04:40:27.413Z,999.51
2018-07-17T04:41:27.440Z,999.52
2018-07-17T04:42:27.455Z,999.56
2018-07-17T04:43:27.481Z,999.55
2018-07-17T04:44:27.514Z,999.54
2018-07-17T04:45:27.513Z,999.53
2018-07-17T04:46:27.538Z,999.53
2018-07-17T04:47:27.564Z,999.55
2018-07-17T04:48:27.575Z,999.53
2018-07-17T04:49:27.616Z,999.53
2018-07-17T04:50:27.630Z,999.52
2018-07-17T04:51:27.640Z,999.54
2018-07-17T04:52:27.652Z,999.51
2018-07-17T04:53:27.685Z,999.53
2018-07-17T04:54:27.710Z,999.57
2018-07-17T04:55:27.729Z,999.60
2018-07-17T04:56:27.743Z,999.62
2018-07-17T04:57:27.764Z,999.63
2018-07-17T04:58:27.798Z,999.66
2018-07-17T04:59:27.804Z,999.80
2018-07-17T05:00:27.825Z,999.94
2018-07-17T05:01:27.902Z,1000.10
2018-07-17T05:02:27.861Z,1000.15
2018-07-17T05:03:27.887Z,1000.25
2018-07-17T05:04:27.912Z,1000.42
2018-07-17T05:05:27.925Z,1000.54
2018-07-17T05:06:27.952Z,1000.52
2018-07-17T05:07:27.972Z,1000.53
2018-07-17T05:08:27.995Z,1000.51
2018-07-17T05:09:28.040Z,1000.49
2018-07-17T05:10:28.071Z,1000.58
2018-07-17T05:11:28.069Z,1000.58
2018-07-17T05:12:28.087Z,1000.45
2018-07-17T05:13:28.109Z,1000.43
2018-07-17T05:14:28.146Z,1000.49
2018-07-17T05:15:28.164Z,1000.51
2018-07-17T05:16:28.331Z,1000.46
2018-07-17T05:17:28.206Z,1000.51
2018-07-17T05:18:28.233Z,1000.63
2018-07-17T05:19:28.276Z,1000.65
2018-07-17T05:20:28.294Z,1000.43
2018-07-17T05:21:28.307Z,1000.38
2018-07-17T05:22:28.370Z,1000.38
2018-07-17T05:23:28.361Z,1000.41
2018-07-17T05:24:28.382Z,1000.57
2018-07-17T05:25:28.412Z,1000.44
2018-07-17T05:26:28.445Z,1000.37
2018-07-17T05:27:28.471Z,1000.49
2018-07-17T05:28:28.499Z,1000.56
2018-07-17T05:29:28.509Z,1000.56
2018-07-17T05:30:28.535Z,1000.41
2018-07-17T05:31:28.564Z,1000.47
2018-07-17T05:32:28.591Z,1000.48
2018-07-17T05:33:28.615Z,1000.64
2018-07-17T05:34:28.642Z,1000.62
2018-07-17T05:35:28.670Z,1000.70
2018-07-17T05:36:28.700Z,1000.79
2018-07-17T05:37:28.726Z,1000.83
2018-07-17T05:38:28.744Z,1000.70
2018-07-17T05:39:28.776Z,1000.62
2018-07-17T05:40:28.813Z,1000.79
2018-07-17T05:41:28.827Z,1000.80
2018-07-17T05:42:28.855Z,1000.79
2018-07-17T05:43:28.893Z,1000.81
2018-07-17T05:44:28.904Z,1000.84
2018-07-17T05:45:28.953Z,1000.95
2018-07-17T05:46:28.969Z,1001.13
2018-07-17T05:47:28.996Z,1001.27
2018-07-17T05:48:29.010Z,1001.27
2018-07-17T05:49:29.045Z,1001.22
2018-07-17T05:50:29.080Z,1001.21
2018-07-17T05:51:29.098Z,1001.12
2018-07-17T05:52:29.121Z,1001.22
2018-07-17T05:53:29.151Z,1001.33
2018-07-17T05:54:29.177Z,1001.52
2018-07-17T05:55:29.210Z,1001.53
2018-07-17T05:56:29.236Z,1001.44
2018-07-17T05:57:29.264Z,1001.60
2018-07-17T05:58:29.292Z,1001.95
2018-07-17T05:59:29.321Z,1001.95
2018-07-17T06:00:29.355Z,1001.94
2018-07-17T06:01:29.376Z,1002.13
2018-07-17T06:02:29.414Z,1002.20
2018-07-17T06:03:29.545Z,1002.15
2018-07-17T06:04:29.471Z,1001.95
2018-07-17T06:05:29.500Z,1001.64
2018-07-17T06:06:29.522Z,1001.27
2018-07-17T06:07:29.551Z,1001.15
2018-07-17T06:08:29.592Z,1001.22
2018-07-17T06:09:29.614Z,1001.17
2018-07-17T06:10:29.644Z,1001.06
2018-07-17T06:11:29.680Z,1001.14
2018-07-17T06:12:29.725Z,1001.23
2018-07-17T06:13:29.739Z,1001.33
2018-07-17T06:14:29.762Z,1001.31
2018-07-17T06:15:29.799Z,1001.29
2018-07-17T06:16:29.828Z,1001.48
2018-07-17T06:17:29.856Z,1002.31
2018-07-17T06:18:29.883Z,1002.66
2018-07-17T06:19:29.898Z,1002.92
2018-07-17T06:20:29.929Z,1003.16
2018-07-17T06:21:29.977Z,1003.56
2018-07-17T06:22:29.981Z,1004.25
2018-07-17T06:23:30.037Z,1004.82
2018-07-17T06:24:30.036Z,1004.02
2018-07-17T06:25:30.068Z,1003.63
2018-07-17T06:26:30.096Z,1003.86
2018-07-17T06:27:30.143Z,1003.97
2018-07-17T06:28:30.158Z,1003.80
2018-07-17T06:29:30.174Z,1003.80
2018-07-17T06:30:30.215Z,1003.87
2018-07-17T06:31:30.237Z,1003.56
2018-07-17T06:32:30.281Z,1003.76
2018-07-17T06:33:30.296Z,1005.33
2018-07-17T06:34:30.326Z,1006.71
2018-07-17T06:35:30.349Z,1007.28
2018-07-17T06:36:30.389Z,1007.80
2018-07-17T06:37:30.434Z,1007.86
2018-07-17T06:38:30.433Z,1007.60
2018-07-17T06:39:30.472Z,1007.63
2018-07-17T06:40:30.500Z,1008.01
2018-07-17T06:41:30.529Z,1008.19
2018-07-17T06:42:30.556Z,1008.14
2018-07-17T06:43:30.589Z,1008.33
2018-07-17T06:44:30.630Z,1008.73
2018-07-17T06:45:30.653Z,1008.30
2018-07-17T06:46:30.714Z,1007.13
2018-07-17T06:47:30.706Z,1006.32
2018-07-17T06:48:30.761Z,1007.05
2018-07-17T06:49:30.780Z,1008.11
2018-07-17T06:50:30.854Z,1008.49
2018-07-17T06:51:30.841Z,1008.80
2018-07-17T06:52:30.864Z,1009.55
2018-07-17T06:53:30.905Z,1010.49
2018-07-17T06:54:30.933Z,1010.65
2018-07-17T06:55:30.965Z,1010.67
2018-07-17T06:56:30.987Z,1009.68
2018-07-17T06:57:31.050Z,1008.14
2018-07-17T06:58:31.051Z,1007.68
2018-07-17T06:59:31.088Z,1007.97
2018-07-17T07:00:31.120Z,1008.58
2018-07-17T07:01:31.303Z,1008.70
2018-07-17T07:02:31.184Z,1008.62
2018-07-17T07:03:31.224Z,1008.39
2018-07-17T07:04:31.261Z,1008.32
2018-07-17T07:05:31.291Z,1008.41
2018-07-17T07:06:31.311Z,1008.32
2018-07-17T07:07:31.337Z,1008.84
2018-07-17T07:08:31.378Z,1009.41
2018-07-17T07:09:31.401Z,1009.65
2018-07-17T07:10:31.430Z,1010.04
2018-07-17T07:11:31.454Z,1010.16
2018-07-17T07:12:31.496Z,1010.05
2018-07-17T07:13:31.520Z,1009.29
2018-07-17T07:14:31.555Z,1009.22
2018-07-17T07:15:31.591Z,1009.04
2018-07-17T07:16:31.624Z,1009.24
2018-07-17T07:17:31.638Z,1009.68
2018-07-17T07:18:31.700Z,1010.66
2018-07-17T07:19:31.712Z,1010.61
2018-07-17T07:20:31.732Z,1010.29
2018-07-17T07:21:31.770Z,1010.24
2018-07-17T07:22:31.808Z,1010.20
2018-07-17T07:23:31.828Z,1011.48
2018-07-17T07:24:31.885Z,1012.68
2018-07-17T07:25:31.892Z,1013.25
2018-07-17T07:26:31.914Z,1013.19
2018-07-17T07:27:31.964Z,1013.25
2018-07-17T07:28:31.980Z,1013.47
2018-07-17T07:29:32.020Z,1013.14
2018-07-17T07:30:32.036Z,1012.83
2018-07-17T07:31:32.064Z,1013.70
2018-07-17T07:32:32.097Z,1014.94
2018-07-17T07:33:32.158Z,1015.39
2018-07-17T07:34:32.172Z,1016.22
2018-07-17T07:35:32.186Z,1014.64
2018-07-17T07:36:32.223Z,1012.97
2018-07-17T07:37:32.261Z,1014.09
2018-07-17T07:38:32.276Z,1014.32
2018-07-17T07:39:32.331Z,1014.80
2018-07-17T07:40:32.345Z,1017.77
2018-07-17T07:41:32.384Z,1017.32
2018-07-17T07:42:32.407Z,1017.52
2018-07-17T07:43:32.431Z,1017.19
2018-07-17T07:44:32.466Z,1017.18
2018-07-17T07:45:32.496Z,1017.14
2018-07-17T07:46:32.523Z,1017.21
2018-07-17T07:47:32.561Z,1017.56
2018-07-17T07:48:32.592Z,1017.09
2018-07-17T07:49:32.627Z,1017.07
2018-07-17T07:50:32.659Z,1018.36
2018-07-17T07:51:32.690Z,1019.69
2018-07-17T07:52:32.717Z,1019.09
2018-07-17T07:53:32.747Z,1016.58
2018-07-17T07:54:32.788Z,1015.29
2018-07-17T07:55:32.831Z,1014.45
2018-07-17T07:56:32.845Z,1014.93
2018-07-17T07:57:32.873Z,1016.70
2018-07-17T07:58:32.914Z,1017.17
2018-07-17T07:59:32.941Z,1016.97
2018-07-17T08:00:32.974Z,1016.87
2018-07-17T08:01:33.012Z,1016.71
2018-07-17T08:02:33.037Z,1015.71
2018-07-17T08:03:33.081Z,1016.01
2018-07-17T08:04:33.094Z,1017.20
2018-07-17T08:05:33.177Z,1018.21
2018-07-17T08:06:33.167Z,1018.53
2018-07-17T08:07:33.212Z,1016.95
2018-07-17T08:08:33.220Z,1015.95
2018-07-17T08:09:33.258Z,1014.55
2018-07-17T08:10:33.290Z,1014.35
2018-07-17T08:11:33.330Z,1016.22
2018-07-17T08:12:33.353Z,1017.35
2018-07-17T08:13:33.395Z,1017.34
2018-07-17T08:14:33.418Z,1019.61
2018-07-17T08:15:33.450Z,1022.61
2018-07-17T08:16:33.487Z,1020.43
2018-07-17T08:17:33.530Z,1019.27
2018-07-17T08:18:33.552Z,1019.98
2018-07-17T08:19:33.583Z,1019.29
2018-07-17T08:20:33.613Z,1018.41
2018-07-17T08:21:33.639Z,1016.96
2018-07-17T08:22:33.675Z,1014.72
2018-07-17T08:23:33.724Z,1015.65
2018-07-17T08:24:33.734Z,1018.76
2018-07-17T08:25:33.779Z,1019.82
2018-07-17T08:26:33.798Z,1019.34
2018-07-17T08:27:33.829Z,1020.21
2018-07-17T08:28:33.884Z,1020.02
2018-07-17T08:29:33.946Z,1019.35
2018-07-17T08:30:33.928Z,1018.96
2018-07-17T08:31:33.964Z,1020.02
2018-07-17T08:32:33.991Z,1019.89
2018-07-17T08:33:34.018Z,1018.37
2018-07-17T08:34:34.046Z,1019.14
2018-07-17T08:35:34.085Z,1020.09
2018-07-17T08:36:34.120Z,1018.79
2018-07-17T08:37:34.133Z,1019.60
2018-07-17T08:38:34.176Z,1010.88
2018-07-17T08:39:34.196Z,1001.21
2018-07-17T08:40:34.232Z,1000.33
2018-07-17T08:41:34.264Z,1000.28
2018-07-17T08:42:34.311Z,1000.31
2018-07-17T08:43:34.351Z,1000.28
2018-07-17T08:44:34.339Z,1000.25
2018-07-17T08:45:34.382Z,1000.21
2018-07-17T08:46:34.402Z,1000.22
2018-07-17T08:47:34.426Z,1000.21
2018-07-17T08:48:34.459Z,1000.23
2018-07-17T08:49:34.495Z,1000.20
2018-07-17T08:50:34.528Z,1000.20
2018-07-17T08:51:34.543Z,1000.14
2018-07-17T08:52:34.571Z,1000.11
2018-07-17T08:53:34.595Z,1000.17
2018-07-17T08:54:34.666Z,1000.14
2018-07-17T08:55:34.656Z,1000.17
2018-07-17T08:56:34.680Z,1000.10
2018-07-17T08:57:34.715Z,1000.09
2018-07-17T08:58:34.736Z,1000.07
2018-07-17T08:59:34.768Z,1000.07
2018-07-17T09:00:34.910Z,1000.09
2018-07-17T09:01:34.885Z,1000.13
2018-07-17T09:02:34.845Z,1000.15
2018-07-17T09:03:34.869Z,1000.09
2018-07-17T09:04:34.897Z,1000.09
2018-07-17T09:05:34.919Z,1000.05
2018-07-17T09:06:34.953Z,1000.01
2018-07-17T09:07:34.984Z,1000.05
2018-07-17T09:08:35.009Z,999.96
2018-07-17T09:09:35.035Z,999.92
2018-07-17T09:10:35.072Z,999.93
2018-07-17T09:11:35.085Z,999.91
2018-07-17T09:12:35.127Z,999.93
2018-07-17T09:13:35.140Z,999.92
2018-07-17T09:14:35.167Z,999.93
2018-07-17T09:15:35.205Z,999.95
2018-07-17T09:16:35.219Z,1000.00
2018-07-17T09:17:35.271Z,999.97
2018-07-17T09:18:35.285Z,999.97
2018-07-17T09:19:35.301Z,999.95
2018-07-17T09:20:35.339Z,999.96
2018-07-17T09:21:35.392Z,999.94
2018-07-17T09:22:35.377Z,999.93
2018-07-17T09:23:35.415Z,999.99
2018-07-17T09:24:35.444Z,999.90
2018-07-17T09:25:35.458Z,999.90
2018-07-17T09:26:35.494Z,999.85
2018-07-17T09:27:35.517Z,999.87
2018-07-17T09:28:35.538Z,999.90
2018-07-17T09:29:35.564Z,999.96
2018-07-17T09:30:35.596Z,999.96
2018-07-17T09:31:35.616Z,1000.01
2018-07-17T09:32:35.670Z,1000.01
2018-07-17T09:33:35.684Z,1000.01
2018-07-17T09:34:35.694Z,999.98
2018-07-17T09:35:35.722Z,999.99
2018-07-17T09:36:35.764Z,1000.00
2018-07-17T09:37:35.774Z,999.92
2018-07-17T09:38:35.868Z,999.90
2018-07-17T09:39:35.832Z,999.87
2018-07-17T09:40:35.848Z,999.91
2018-07-17T09:41:35.885Z,999.82
2018-07-17T09:42:35.908Z,999.85
2018-07-17T09:43:35.939Z,999.89
2018-07-17T09:44:35.958Z,999.87
2018-07-17T09:45:35.991Z,999.88
2018-07-17T09:46:36.017Z,999.91
2018-07-17T09:47:36.041Z,999.97
2018-07-17T09:48:36.065Z,1000.01
2018-07-17T09:49:36.095Z,999.96
2018-07-17T09:50:36.115Z,999.95
2018-07-17T09:51:36.162Z,999.93
2018-07-17T09:52:36.164Z,999.91
2018-07-17T09:53:36.212Z,999.89
2018-07-17T09:54:36.231Z,999.90
2018-07-17T09:55:36.252Z,999.80
2018-07-17T09:56:36.280Z,999.86
2018-07-17T09:57:36.314Z,999.84
2018-07-17T09:58:36.333Z,999.81
2018-07-17T09:59:36.354Z,999.81
2018-07-17T10:00:36.395Z,999.83
2018-07-17T10:01:36.408Z,999.83
2018-07-17T10:02:36.436Z,999.84
2018-07-17T10:03:36.458Z,999.84
2018-07-17T10:04:36.498Z,999.83
2018-07-17T10:05:36.518Z,999.81
2018-07-17T10:06:36.536Z,999.86
2018-07-17T10:07:36.570Z,999.87
2018-07-17T10:08:36.590Z,999.84
2018-07-17T10:09:36.684Z,999.86
2018-07-17T10:10:36.647Z,999.86
2018-07-17T10:11:36.674Z,999.86
2018-07-17T10:12:36.701Z,999.82
2018-07-17T10:13:36.723Z,999.76
2018-07-17T10:14:36.786Z,999.80
2018-07-17T10:15:36.775Z,999.77
2018-07-17T10:16:36.802Z,999.76
2018-07-17T10:17:36.825Z,999.81
2018-07-17T10:18:36.861Z,999.77
2018-07-17T10:19:36.881Z,999.81
2018-07-17T10:20:36.921Z,999.82
2018-07-17T10:21:36.982Z,999.79
2018-07-17T10:22:37.008Z,999.76
2018-07-17T10:23:36.990Z,999.77
2018-07-17T10:24:37.014Z,999.73
2018-07-17T10:25:37.044Z,999.77
2018-07-17T10:26:37.088Z,999.82
2018-07-17T10:27:37.096Z,999.91
2018-07-17T10:28:37.134Z,999.94
2018-07-17T10:29:37.147Z,999.94
2018-07-17T10:30:37.179Z,999.90
2018-07-17T10:31:37.202Z,999.91
2018-07-17T10:32:37.227Z,999.90
2018-07-17T10:33:37.255Z,999.98
2018-07-17T10:34:37.299Z,999.98
2018-07-17T10:35:37.308Z,999.96
2018-07-17T10:36:37.331Z,999.97
2018-07-17T10:37:37.353Z,999.92
2018-07-17T10:38:37.476Z,999.96
2018-07-17T10:39:37.418Z,999.97
2018-07-17T10:40:37.436Z,999.96
2018-07-17T10:41:37.466Z,999.93
2018-07-17T10:42:37.498Z,999.86
2018-07-17T10:43:37.540Z,999.87
2018-07-17T10:44:37.643Z,999.84
2018-07-17T10:45:37.572Z,999.83
2018-07-17T10:46:37.590Z,999.83
2018-07-17T10:47:37.628Z,999.85
2018-07-17T10:48:37.648Z,999.84
2018-07-17T10:49:37.675Z,999.84
2018-07-17T10:50:37.704Z,999.86
2018-07-17T10:51:37.730Z,999.81
2018-07-17T10:52:37.755Z,999.86
2018-07-17T10:53:37.776Z,999.82
2018-07-17T10:54:37.818Z,999.85
2018-07-17T10:55:37.839Z,999.84
2018-07-17T10:56:37.877Z,999.83
2018-07-17T10:57:37.891Z,999.88
2018-07-17T10:58:37.921Z,999.90
2018-07-17T10:59:37.943Z,999.91
2018-07-17T11:00:37.967Z,999.87
2018-07-17T11:01:37.990Z,999.84
2018-07-17T11:02:38.061Z,999.81
2018-07-17T11:03:38.043Z,999.86
2018-07-17T11:04:38.072Z,999.92
2018-07-17T11:05:38.096Z,999.89
2018-07-17T11:06:38.155Z,999.96
2018-07-17T11:07:38.167Z,999.98
2018-07-17T11:08:38.178Z,999.94
2018-07-17T11:09:38.201Z,999.93
2018-07-17T11:10:38.239Z,999.91
2018-07-17T11:11:38.259Z,999.92
2018-07-17T11:12:38.292Z,999.89
2018-07-17T11:13:38.308Z,999.90
2018-07-17T11:14:38.366Z,999.84
2018-07-17T11:15:38.386Z,999.80
2018-07-17T11:16:38.388Z,999.76
2018-07-17T11:17:38.446Z,999.75
2018-07-17T11:18:38.462Z,999.83
2018-07-17T11:19:38.472Z,999.78
2018-07-17T11:20:38.496Z,999.87
2018-07-17T11:21:38.545Z,999.89
2018-07-17T11:22:38.555Z,999.86
2018-07-17T11:23:38.583Z,999.88
2018-07-17T11:24:38.602Z,999.86
2018-07-17T11:25:38.635Z,999.94
2018-07-17T11:26:38.663Z,999.91
2018-07-17T11:27:38.688Z,999.96
2018-07-17T11:28:38.714Z,999.90
2018-07-17T11:29:38.737Z,999.84
2018-07-17T11:30:38.773Z,999.83
2018-07-17T11:31:38.792Z,999.87
2018-07-17T11:32:38.812Z,999.83
2018-07-17T11:33:38.866Z,999.81
2018-07-17T11:34:38.870Z,999.77
2018-07-17T11:35:38.909Z,999.81
2018-07-17T11:36:38.925Z,999.84
2018-07-17T11:37:38.955Z,999.78
2018-07-17T11:38:39.050Z,999.77
2018-07-17T11:39:39.007Z,999.74
2018-07-17T11:40:39.041Z,999.74
2018-07-17T11:41:39.106Z,999.77
2018-07-17T11:42:39.084Z,999.69
2018-07-17T11:43:39.111Z,999.70
2018-07-17T11:44:39.148Z,999.76
2018-07-17T11:45:39.164Z,999.77
2018-07-17T11:46:39.188Z,999.81
2018-07-17T11:47:39.223Z,999.76
2018-07-17T11:48:39.248Z,999.77
2018-07-17T11:49:39.284Z,999.77
2018-07-17T11:50:39.303Z,999.72
2018-07-17T11:51:39.330Z,999.70
2018-07-17T11:52:39.361Z,999.68
2018-07-17T11:53:39.380Z,999.72
2018-07-17T11:54:39.406Z,999.75
2018-07-17T11:55:39.432Z,999.62
2018-07-17T11:56:39.465Z,999.73
2018-07-17T11:57:39.484Z,999.71
2018-07-17T11:58:39.513Z,999.75
2018-07-17T11:59:39.644Z,999.71
2018-07-17T12:00:39.568Z,999.72
2018-07-17T12:01:39.616Z,999.70
2018-07-17T12:02:39.622Z,999.70
2018-07-17T12:03:39.659Z,999.68
2018-07-17T12:04:39.680Z,999.71
2018-07-17T12:05:39.708Z,999.73
2018-07-17T12:06:39.732Z,999.76
2018-07-17T12:07:39.756Z,999.77
2018-07-17T12:08:39.783Z,999.69
2018-07-17T12:09:39.810Z,999.67
2018-07-17T12:10:39.836Z,999.72
2018-07-17T12:11:39.866Z,999.77
2018-07-17T12:12:39.947Z,999.70
2018-07-17T12:13:39.914Z,999.66
2018-07-17T12:14:39.942Z,999.59
2018-07-17T12:15:39.979Z,999.64
2018-07-17T12:16:39.996Z,999.63
2018-07-17T12:17:40.028Z,999.67
2018-07-17T12:18:40.053Z,999.65
2018-07-17T12:19:40.142Z,999.59
2018-07-17T12:20:40.221Z,999.63